Sl Murrumbidgee — VJN3448 — position and weather

sailwx.info

Track history (hours):
 
Tides and Currents Weather Stations Pressure Air Temp Water Temp Dewpoint Dewpoint Depression Visibility Wind Speed Wind Dir Waves Ship Positions

Sl Murrumbidgee

Last reported at 2017-Nov-20 00:30 UTC. Time now 2017-Nov-22 09:23 UTC.
Position S 27°24' E 153°09'.

Length 24 m; draft 5.4 m.

Type: Tug. MMSI: 503384400.

Date/timePositionNaut miles runAvg speedWind from/ knotsBaromVisibWave heightAir tempDewpointWater temp
2017-Nov-20 00:30S 27°24' E 153°09'0 0.0
2017-Nov-20 00:01S 27°24' E 153°09'0 0.0
2017-Nov-19 23:30S 27°24' E 153°09'0 0.0
2017-Nov-19 23:00S 27°24' E 153°09'0 0.0
2017-Nov-19 22:30S 27°24' E 153°09'0 0.0
2017-Nov-19 22:01S 27°24' E 153°09'0 0.0
2017-Nov-19 21:31S 27°24' E 153°09'0 0.0
2017-Nov-19 21:01S 27°24' E 153°09'2 3.1
2017-Nov-19 20:30S 27°23' E 153°10'1 1.0
2017-Nov-19 19:56S 27°22' E 153°10'3 4.0
2017-Nov-19 19:09S 27°25' E 153°09'0 0.6
2017-Nov-19 18:58S 27°25' E 153°09'2 4.9
2017-Nov-19 18:31S 27°23' E 153°10'1 2.7
2017-Nov-19 18:01S 27°24' E 153°09'0 0.0
2017-Nov-19 17:30S 27°24' E 153°09'0 0.0
2017-Nov-19 17:01S 27°24' E 153°09'0 0.0
2017-Nov-19 16:31S 27°24' E 153°09'0 0.0
2017-Nov-19 16:01S 27°24' E 153°09'0 0.0
2017-Nov-19 15:30S 27°24' E 153°09'0 0.0
2017-Nov-19 15:01S 27°24' E 153°09'0 0.0
2017-Nov-19 14:31S 27°24' E 153°09'0 0.0
2017-Nov-19 14:00S 27°24' E 153°09'0 0.0
2017-Nov-19 13:31S 27°24' E 153°09'0 0.0
2017-Nov-19 13:01S 27°24' E 153°09'0 0.0
2017-Nov-19 12:30S 27°24' E 153°09'2 3.8
2017-Nov-19 12:01S 27°22' E 153°10'0 0.1
2017-Nov-19 11:31S 27°22' E 153°10'1 2.4
2017-Nov-19 11:01S 27°21' E 153°11'3 5.8
2017-Nov-19 10:29S 27°24' E 153°09'0 0.2
2017-Nov-19 10:01S 27°24' E 153°09'0 0.0
2017-Nov-19 09:30S 27°24' E 153°09'0 0.0
2017-Nov-19 09:00S 27°24' E 153°09'1 1.5
2017-Nov-19 08:30S 27°23' E 153°09'0 0.4
2017-Nov-19 08:00S 27°23' E 153°09'2 4.1
2017-Nov-19 07:30S 27°22' E 153°11'3 5.6
2017-Nov-19 07:01S 27°24' E 153°09'0 0.0
2017-Nov-19 06:30S 27°24' E 153°09'0 0.0
2017-Nov-19 06:00S 27°24' E 153°09'0 0.0
2017-Nov-19 05:31S 27°24' E 153°09'0 0.0
2017-Nov-19 04:59S 27°24' E 153°09'0 0.0
2017-Nov-19 04:31S 27°24' E 153°09'0 0.0
2017-Nov-19 04:00S 27°24' E 153°09'0 0.0
2017-Nov-19 03:30S 27°24' E 153°09'0 0.0
2017-Nov-19 02:58S 27°24' E 153°09'0 0.0
2017-Nov-19 02:30S 27°24' E 153°09'0 0.0
2017-Nov-19 02:00S 27°24' E 153°09'0 0.0
2017-Nov-19 01:31S 27°24' E 153°09'0 0.0
2017-Nov-19 01:00S 27°24' E 153°09'0 0.0
2017-Nov-19 00:30S 27°24' E 153°09'2 3.7
2017-Nov-18 23:58S 27°22' E 153°10'0 0.6
2017-Nov-18 23:30S 27°22' E 153°10'0 0.2
2017-Nov-18 22:58S 27°22' E 153°10'2 5.0
2017-Nov-18 22:30S 27°24' E 153°09'0 0.0
2017-Nov-18 22:00S 27°24' E 153°09'0 0.0
2017-Nov-18 21:30S 27°24' E 153°09'0 0.0
2017-Nov-18 21:01S 27°24' E 153°09'0 0.0
2017-Nov-18 20:31S 27°24' E 153°09'0 0.0
2017-Nov-18 20:01S 27°24' E 153°09'0 0.0
2017-Nov-18 19:30S 27°24' E 153°09'0 0.0
2017-Nov-18 19:01S 27°24' E 153°09'0 0.0
2017-Nov-18 18:31S 27°24' E 153°09'0 0.0
2017-Nov-18 18:00S 27°24' E 153°09'0 0.0
2017-Nov-18 17:31S 27°24' E 153°09'0 0.0
2017-Nov-18 17:00S 27°24' E 153°09'0 0.0
2017-Nov-18 16:31S 27°24' E 153°09'0 0.0
2017-Nov-18 16:00S 27°24' E 153°09'0 0.0
2017-Nov-18 15:31S 27°24' E 153°09'0 0.0
2017-Nov-18 15:00S 27°24' E 153°09'0 0.0
2017-Nov-18 14:31S 27°24' E 153°09'0 0.0
2017-Nov-18 14:01S 27°24' E 153°09'0 0.0
2017-Nov-18 13:30S 27°24' E 153°09'0 0.0
2017-Nov-18 13:01S 27°24' E 153°09'0 0.0
2017-Nov-18 12:31S 27°24' E 153°09'0 0.0
2017-Nov-18 12:01S 27°24' E 153°09'1 2.4
2017-Nov-18 11:30S 27°23' E 153°10'1 2.4
2017-Nov-18 11:00S 27°24' E 153°09'0 0.0
2017-Nov-18 10:30S 27°24' E 153°09'0 0.0
2017-Nov-18 10:01S 27°24' E 153°09'0 0.0
2017-Nov-18 09:30S 27°24' E 153°09'0 0.0
2017-Nov-18 09:01S 27°24' E 153°09'0 0.0
2017-Nov-18 08:30S 27°24' E 153°09'0 0.0
2017-Nov-18 08:00S 27°24' E 153°09'0 0.0
2017-Nov-18 07:31S 27°24' E 153°09'0 0.0
2017-Nov-18 07:01S 27°24' E 153°09'0 0.0
2017-Nov-18 06:27S 27°24' E 153°09'0 0.0
2017-Nov-18 05:58S 27°24' E 153°09'0 0.0
2017-Nov-18 05:29S 27°24' E 153°09'2 3.3
2017-Nov-18 05:01S 27°23' E 153°10'2 2.9
2017-Nov-18 04:28S 27°24' E 153°09'0 0.0
2017-Nov-18 04:00S 27°24' E 153°09'0 0.0
2017-Nov-18 03:29S 27°24' E 153°09'0 0.0
2017-Nov-18 02:58S 27°24' E 153°09'0 0.0
2017-Nov-18 02:29S 27°24' E 153°09'0 0.0
2017-Nov-18 01:57S 27°24' E 153°09'0 0.0
2017-Nov-18 01:21S 27°24' E 153°09'2 5.7
2017-Nov-18 01:00S 27°22' E 153°10'0 0.4
2017-Nov-18 00:22S 27°22' E 153°10'2 5.9
2017-Nov-17 23:59S 27°24' E 153°09'0 0.4
2017-Nov-17 23:30S 27°24' E 153°09'1 2.3
2017-Nov-17 22:58S 27°23' E 153°10'1 1.0
2017-Nov-17 21:40S 27°24' E 153°09'0 0.0
2017-Nov-17 21:28S 27°24' E 153°09'0 0.0
2017-Nov-17 20:56S 27°24' E 153°09'0 0.0
2017-Nov-17 20:30S 27°24' E 153°09'0 0.0
2017-Nov-17 19:58S 27°24' E 153°09'0 0.0
2017-Nov-17 19:29S 27°24' E 153°09'0 0.0
2017-Nov-17 19:00S 27°24' E 153°09'0 0.0
2017-Nov-17 18:27S 27°24' E 153°09'0 0.0
2017-Nov-17 17:57S 27°24' E 153°09'0 0.0
2017-Nov-17 17:28S 27°24' E 153°09'0 0.0
2017-Nov-17 16:58S 27°24' E 153°09'1 1.0
2017-Nov-17 15:57S 27°23' E 153°10'0 0.1
2017-Nov-17 15:22S 27°23' E 153°10'0 0.3
2017-Nov-17 14:57S 27°23' E 153°09'1 1.5
2017-Nov-17 14:21S 27°24' E 153°09'0 0.0
2017-Nov-17 14:00S 27°24' E 153°09'0 0.0
2017-Nov-17 13:30S 27°24' E 153°09'0 0.0
2017-Nov-17 12:59S 27°24' E 153°09'0 0.0
2017-Nov-17 12:24S 27°24' E 153°09'0 0.0
2017-Nov-17 11:58S 27°24' E 153°09'0 0.0
2017-Nov-17 11:29S 27°24' E 153°09'0 0.0
2017-Nov-17 10:58S 27°24' E 153°09'0 0.0
2017-Nov-17 10:30S 27°24' E 153°09'0 0.0
2017-Nov-17 09:53S 27°24' E 153°09'0 0.0
2017-Nov-17 09:25S 27°24' E 153°09'1 2.9
2017-Nov-17 08:56S 27°23' E 153°10'1 2.7
2017-Nov-17 08:26S 27°24' E 153°09'0 0.0
2017-Nov-17 07:56S 27°24' E 153°09'0 0.0
2017-Nov-17 07:29S 27°24' E 153°09'0 0.0
2017-Nov-17 06:59S 27°24' E 153°09'0 0.0
2017-Nov-17 06:30S 27°24' E 153°09'0 0.0
2017-Nov-17 06:00S 27°24' E 153°09'1 2.6
2017-Nov-17 05:26S 27°24' E 153°11'1 2.9
2017-Nov-17 04:55S 27°24' E 153°09'0 0.0
2017-Nov-17 02:19S 27°24' E 153°09'0 0.0
2017-Nov-17 01:50S 27°24' E 153°09'0 0.0
2017-Nov-17 01:21S 27°24' E 153°09'0 0.0
2017-Nov-17 00:50S 27°24' E 153°09'0 0.0
2017-Nov-17 00:26S 27°24' E 153°09'0 0.0
2017-Nov-16 22:15S 27°24' E 153°09'0 0.0
2017-Nov-16 21:54S 27°24' E 153°09'1 1.9
2017-Nov-16 21:24S 27°23' E 153°09'1 0.9
2017-Nov-16 20:22S 27°24' E 153°09'0 0.0
2017-Nov-16 20:00S 27°24' E 153°09'0 0.0
2017-Nov-16 19:25S 27°24' E 153°09'0 0.0
2017-Nov-16 19:00S 27°24' E 153°09'0 0.0
2017-Nov-16 18:29S 27°24' E 153°09'0 0.0
2017-Nov-16 17:55S 27°24' E 153°09'0 0.0
2017-Nov-16 17:31S 27°24' E 153°09'0 0.0
2017-Nov-16 17:01S 27°24' E 153°09'0 0.0
2017-Nov-16 16:31S 27°24' E 153°09'0 0.0
2017-Nov-16 16:01S 27°24' E 153°09'0 0.0
2017-Nov-16 15:31S 27°24' E 153°09'0 0.0
2017-Nov-16 15:00S 27°24' E 153°09'0 0.0
2017-Nov-16 14:31S 27°24' E 153°09'0 0.0
2017-Nov-16 14:01S 27°24' E 153°09'1 1.5
2017-Nov-16 13:31S 27°23' E 153°09'1 1.4
2017-Nov-16 13:00S 27°23' E 153°10'0 0.4
2017-Nov-16 12:30S 27°23' E 153°10'1 2.5
2017-Nov-16 12:00S 27°24' E 153°09'0 0.0
2017-Nov-16 11:31S 27°24' E 153°09'0 0.0
2017-Nov-16 11:00S 27°24' E 153°09'0 0.0
2017-Nov-16 10:30S 27°24' E 153°09'0 0.0
2017-Nov-16 10:01S 27°24' E 153°09'0 0.0
2017-Nov-16 09:31S 27°24' E 153°09'0 0.0
2017-Nov-16 09:01S 27°24' E 153°09'0 0.0
2017-Nov-16 08:31S 27°24' E 153°09'0 0.0
2017-Nov-16 08:01S 27°24' E 153°09'0 0.0
2017-Nov-16 07:31S 27°24' E 153°09'0 0.0
2017-Nov-16 07:00S 27°24' E 153°09'0 0.0
2017-Nov-16 06:30S 27°24' E 153°09'0 0.0
2017-Nov-16 05:59S 27°24' E 153°09'0 0.0
2017-Nov-16 05:29S 27°24' E 153°09'0 0.0
2017-Nov-16 03:29S 27°24' E 153°09'0 0.0
2017-Nov-16 02:32S 27°24' E 153°09'0 0.1
2017-Nov-16 02:30S 27°24' E 153°09'0 0.0
2017-Nov-16 01:55S 27°24' E 153°09'0 0.0
2017-Nov-16 01:30S 27°24' E 153°09'0 0.0
2017-Nov-16 00:51S 27°24' E 153°09'0 0.0
2017-Nov-16 00:30S 27°24' E 153°09'0 0.0
2017-Nov-15 23:54S 27°24' E 153°09'0 0.0
2017-Nov-15 23:30S 27°24' E 153°09'0 0.0
2017-Nov-15 22:59S 27°24' E 153°09'0 0.0
2017-Nov-15 22:29S 27°24' E 153°09'0 0.0
2017-Nov-15 21:59S 27°24' E 153°09'0 0.0
2017-Nov-15 21:31S 27°24' E 153°09'0 0.0
2017-Nov-15 21:00S 27°24' E 153°09'0 0.0
2017-Nov-15 20:31S 27°24' E 153°09'2 3.4
2017-Nov-15 20:01S 27°23' E 153°10'2 3.0
2017-Nov-15 19:27S 27°24' E 153°09'0 0.2
2017-Nov-15 19:01S 27°24' E 153°09'0 0.0
2017-Nov-15 18:31S 27°24' E 153°09'0 0.0
2017-Nov-15 18:01S 27°24' E 153°09'0 0.0
2017-Nov-15 17:30S 27°24' E 153°09'0 0.0
2017-Nov-15 17:00S 27°24' E 153°09'0 0.0
2017-Nov-15 16:31S 27°24' E 153°09'0 0.0
2017-Nov-15 16:01S 27°24' E 153°09'0 0.0
2017-Nov-15 15:31S 27°24' E 153°09'0 0.0
2017-Nov-15 15:01S 27°24' E 153°09'0 0.0
2017-Nov-15 14:30S 27°24' E 153°09'0 0.0
2017-Nov-15 14:01S 27°24' E 153°09'0 0.0
2017-Nov-15 13:31S 27°24' E 153°09'0 0.0
2017-Nov-15 13:01S 27°24' E 153°09'0 0.0
2017-Nov-15 12:30S 27°24' E 153°09'0 0.0
2017-Nov-15 12:01S 27°24' E 153°09'0 0.0
2017-Nov-15 11:31S 27°24' E 153°09'0 0.0
2017-Nov-15 11:01S 27°24' E 153°09'1 1.9
2017-Nov-15 10:30S 27°23' E 153°10'0 0.1
2017-Nov-15 09:59S 27°23' E 153°10'1 1.3
2017-Nov-15 09:31S 27°23' E 153°10'0 0.2
2017-Nov-15 09:00S 27°23' E 153°10'2 3.3
2017-Nov-15 08:31S 27°24' E 153°09'0 0.0
2017-Nov-15 08:01S 27°24' E 153°09'0 0.0
2017-Nov-15 07:31S 27°24' E 153°09'0 0.0
2017-Nov-15 07:01S 27°24' E 153°09'0 0.0
2017-Nov-15 06:31S 27°24' E 153°09'0 0.0
2017-Nov-15 05:58S 27°24' E 153°09'0 0.0
2017-Nov-15 05:28S 27°24' E 153°09'0 0.0
2017-Nov-15 04:59S 27°24' E 153°09'0 0.0
2017-Nov-15 04:28S 27°24' E 153°09'0 0.0
2017-Nov-15 03:58S 27°24' E 153°09'0 0.0
2017-Nov-15 03:28S 27°24' E 153°09'0 0.0
2017-Nov-15 02:42S 27°24' E 153°09'0 0.0
2017-Nov-15 02:26S 27°24' E 153°09'0 0.0
2017-Nov-15 01:48S 27°24' E 153°09'0 0.0
2017-Nov-15 00:56S 27°24' E 153°09'0 0.0
2017-Nov-15 00:29S 27°24' E 153°09'0 0.0
2017-Nov-15 00:00S 27°24' E 153°09'0 0.0
2017-Nov-14 23:30S 27°24' E 153°09'0 0.0
2017-Nov-14 23:00S 27°24' E 153°09'0 0.0
2017-Nov-14 22:29S 27°24' E 153°09'0 0.0
2017-Nov-14 22:00S 27°24' E 153°09'1 2.3
2017-Nov-14 21:30S 27°23' E 153°10'0 0.6
2017-Nov-14 20:53S 27°23' E 153°10'1 3.9
2017-Nov-14 20:31S 27°24' E 153°09'0 0.0
2017-Nov-14 20:01S 27°24' E 153°09'0 0.0
2017-Nov-14 19:30S 27°24' E 153°09'0 0.0
2017-Nov-14 19:01S 27°24' E 153°09'0 0.0
2017-Nov-14 18:31S 27°24' E 153°09'0 0.0
2017-Nov-14 18:01S 27°24' E 153°09'0 0.0
2017-Nov-14 17:31S 27°24' E 153°09'0 0.0
2017-Nov-14 17:01S 27°24' E 153°09'0 0.0
2017-Nov-14 16:31S 27°24' E 153°09'0 0.0
2017-Nov-14 16:01S 27°24' E 153°09'0 0.0
2017-Nov-14 15:30S 27°24' E 153°09'0 0.0
2017-Nov-14 15:01S 27°24' E 153°09'0 0.0
2017-Nov-14 14:30S 27°24' E 153°09'0 0.0
2017-Nov-14 14:00S 27°24' E 153°09'1 2.4
2017-Nov-14 13:31S 27°23' E 153°10'1 1.0
2017-Nov-14 13:01S 27°23' E 153°10'0 0.5
2017-Nov-14 12:31S 27°23' E 153°10'1 2.9
2017-Nov-14 12:01S 27°24' E 153°09'0 0.0
2017-Nov-14 11:30S 27°24' E 153°09'0 0.0
2017-Nov-14 11:01S 27°24' E 153°09'0 0.0
2017-Nov-14 10:31S 27°24' E 153°09'0 0.0
2017-Nov-14 10:00S 27°24' E 153°09'0 0.0
2017-Nov-14 09:31S 27°24' E 153°09'0 0.0
2017-Nov-14 09:00S 27°24' E 153°09'0 0.0
2017-Nov-14 08:30S 27°24' E 153°09'0 0.0
2017-Nov-14 08:00S 27°24' E 153°09'0 0.0
2017-Nov-14 07:31S 27°24' E 153°09'0 0.0
2017-Nov-14 07:00S 27°24' E 153°09'0 0.0
2017-Nov-14 06:30S 27°24' E 153°09'0 0.0
2017-Nov-14 06:00S 27°24' E 153°09'0 0.0
2017-Nov-14 05:31S 27°24' E 153°09'0 0.0
2017-Nov-14 05:00S 27°24' E 153°09'0 0.0
2017-Nov-14 04:22S 27°24' E 153°09'0 0.0
2017-Nov-14 03:56S 27°24' E 153°09'0 0.0
2017-Nov-14 03:29S 27°24' E 153°09'2 4.0
2017-Nov-14 03:00S 27°22' E 153°10'0 0.2
2017-Nov-14 02:30S 27°22' E 153°10'0 0.8
2017-Nov-14 02:00S 27°22' E 153°10'1 0.6
2017-Nov-14 00:54S 27°23' E 153°10'1 1.7
2017-Nov-14 00:26S 27°22' E 153°11'2 5.5
2017-Nov-13 23:59S 27°24' E 153°09'0 0.0
2017-Nov-13 23:15S 27°24' E 153°09'0 0.0
2017-Nov-13 22:58S 27°24' E 153°09'0 0.0
2017-Nov-13 22:30S 27°24' E 153°09'0 0.0
2017-Nov-13 22:00S 27°24' E 153°09'0 0.0
2017-Nov-13 00:07S 27°24' E 153°09'0 0.0
2017-Nov-12 23:59S 27°24' E 153°09'0 0.0
2017-Nov-12 23:20S 27°24' E 153°09'0 0.0
2017-Nov-12 21:24S 27°24' E 153°09'0 0.1
2017-Nov-12 21:00S 27°24' E 153°09'0 0.0
2017-Nov-12 20:22S 27°24' E 153°09'0 0.0
2017-Nov-12 20:00S 27°24' E 153°09'0 0.0
2017-Nov-12 19:30S 27°24' E 153°09'0 0.0
2017-Nov-12 19:00S 27°24' E 153°09'0 0.0
2017-Nov-12 18:30S 27°24' E 153°09'0 0.0
2017-Nov-12 18:00S 27°24' E 153°09'0 0.0
2017-Nov-12 17:30S 27°24' E 153°09'0 0.0
2017-Nov-12 17:00S 27°24' E 153°09'0 0.0
2017-Nov-12 16:30S 27°24' E 153°09'2 4.9
2017-Nov-12 16:00S 27°22' E 153°11'0 0.5
2017-Nov-12 15:30S 27°22' E 153°10'0 0.0
2017-Nov-12 14:59S 27°22' E 153°10'0 0.0
2017-Nov-12 14:30S 27°22' E 153°10'0 0.0
2017-Nov-12 14:00S 27°22' E 153°10'0 0.0
2017-Nov-12 13:30S 27°22' E 153°10'0 0.0
2017-Nov-12 13:00S 27°22' E 153°10'0 0.2
2017-Nov-12 12:29S 27°22' E 153°10'0 0.9
2017-Nov-12 11:58S 27°22' E 153°11'1 1.7
2017-Nov-12 11:30S 27°21' E 153°11'3 6.6
2017-Nov-12 10:58S 27°24' E 153°09'0 0.1
2017-Nov-12 10:30S 27°24' E 153°09'0 0.0
2017-Nov-12 10:00S 27°24' E 153°09'0 0.0
2017-Nov-12 09:30S 27°24' E 153°09'0 0.0
2017-Nov-12 09:00S 27°24' E 153°09'0 0.0
2017-Nov-12 08:30S 27°24' E 153°09'0 0.0
2017-Nov-12 08:00S 27°24' E 153°09'0 0.0
2017-Nov-12 07:29S 27°24' E 153°09'0 0.0
2017-Nov-12 06:59S 27°24' E 153°09'0 0.0
2017-Nov-12 06:28S 27°24' E 153°09'0 0.0
2017-Nov-12 06:00S 27°24' E 153°09'0 0.0
2017-Nov-12 05:30S 27°24' E 153°09'0 0.0
2017-Nov-12 04:59S 27°24' E 153°09'2 1.6
2017-Nov-12 03:59S 27°23' E 153°10'1 0.3
2017-Nov-12 01:04S 27°22' E 153°11'1 1.2
2017-Nov-12 00:37S 27°21' E 153°11'0 0.8
2017-Nov-12 00:24S 27°21' E 153°11'3 6.4
2017-Nov-11 23:57S 27°24' E 153°09'0 0.0
2017-Nov-11 23:29S 27°24' E 153°09'0 0.0
2017-Nov-11 22:57S 27°24' E 153°09'0 0.0
2017-Nov-11 22:19S 27°24' E 153°09'0 0.0
2017-Nov-11 21:59S 27°24' E 153°09'0 0.0
2017-Nov-11 21:30S 27°24' E 153°09'0 0.0
2017-Nov-11 21:00S 27°24' E 153°09'0 0.0
2017-Nov-11 20:29S 27°24' E 153°09'0 0.0
2017-Nov-11 20:00S 27°24' E 153°09'0 0.0
2017-Nov-11 19:30S 27°24' E 153°09'0 0.0
2017-Nov-11 19:00S 27°24' E 153°09'0 0.0
2017-Nov-11 18:30S 27°24' E 153°09'0 0.0
2017-Nov-11 18:00S 27°24' E 153°09'0 0.0
2017-Nov-11 17:30S 27°24' E 153°09'0 0.0
2017-Nov-11 17:00S 27°24' E 153°09'0 0.0
2017-Nov-11 16:30S 27°24' E 153°09'0 0.0
2017-Nov-11 16:00S 27°24' E 153°09'0 0.0
2017-Nov-11 15:30S 27°24' E 153°09'0 0.0
2017-Nov-11 15:00S 27°24' E 153°09'0 0.0
2017-Nov-11 14:30S 27°24' E 153°09'0 0.0
2017-Nov-11 14:00S 27°24' E 153°09'0 0.0
2017-Nov-11 13:30S 27°24' E 153°09'0 0.0
2017-Nov-11 13:00S 27°24' E 153°09'0 0.0
2017-Nov-11 12:30S 27°24' E 153°09'0 0.0
2017-Nov-11 12:00S 27°24' E 153°09'0 0.0
2017-Nov-11 11:30S 27°24' E 153°09'0 0.0
2017-Nov-11 11:00S 27°24' E 153°09'0 0.0
2017-Nov-11 10:30S 27°24' E 153°09'0 0.0
2017-Nov-11 10:00S 27°24' E 153°09'2 4.7
2017-Nov-11 09:30S 27°22' E 153°10'0 0.6
2017-Nov-11 08:59S 27°22' E 153°11'0 0.6
2017-Nov-11 08:29S 27°22' E 153°10'0 0.2
2017-Nov-11 08:00S 27°22' E 153°10'1 1.3
2017-Nov-11 07:23S 27°23' E 153°10'1 1.6
2017-Nov-11 07:00S 27°23' E 153°09'0 0.5
2017-Nov-11 06:30S 27°23' E 153°10'1 1.4
2017-Nov-11 06:00S 27°22' E 153°10'2 3.8
2017-Nov-11 05:30S 27°24' E 153°09'0 0.0
2017-Nov-11 05:00S 27°24' E 153°09'0 0.0
2017-Nov-11 04:28S 27°24' E 153°09'0 0.0
2017-Nov-11 03:52S 27°24' E 153°09'0 0.0
2017-Nov-11 03:30S 27°24' E 153°09'0 0.0
2017-Nov-11 02:56S 27°24' E 153°09'0 0.0
2017-Nov-11 02:30S 27°24' E 153°09'0 0.0
2017-Nov-10 23:07S 27°24' E 153°09'0 0.0
2017-Nov-10 23:00S 27°24' E 153°09'0 0.0
2017-Nov-10 22:30S 27°24' E 153°09'0 0.0
2017-Nov-10 21:59S 27°24' E 153°09'0 0.0
2017-Nov-10 21:30S 27°24' E 153°09'0 0.0
2017-Nov-10 20:59S 27°24' E 153°09'1 0.5
2017-Nov-10 19:53S 27°25' E 153°09'1 1.5
2017-Nov-10 19:30S 27°24' E 153°09'0 0.0
2017-Nov-10 19:00S 27°24' E 153°09'0 0.0
2017-Nov-10 18:30S 27°24' E 153°09'0 0.0
2017-Nov-10 18:00S 27°24' E 153°09'0 0.0
2017-Nov-10 17:30S 27°24' E 153°09'0 0.0
2017-Nov-10 17:00S 27°24' E 153°09'0 0.0
2017-Nov-10 16:30S 27°24' E 153°09'0 0.0
2017-Nov-10 16:00S 27°24' E 153°09'0 0.0
2017-Nov-10 15:30S 27°24' E 153°09'0 0.0
2017-Nov-10 15:00S 27°24' E 153°09'1 1.2
2017-Nov-10 14:29S 27°25' E 153°09'1 0.6
2017-Nov-10 13:27S 27°25' E 153°09'1 2.8
2017-Nov-10 13:00S 27°24' E 153°09'0 0.0
2017-Nov-10 12:30S 27°24' E 153°09'0 0.0
2017-Nov-10 12:00S 27°24' E 153°09'0 0.0
2017-Nov-10 11:30S 27°24' E 153°09'0 0.0
2017-Nov-10 11:00S 27°24' E 153°09'0 0.0
2017-Nov-10 10:30S 27°24' E 153°09'0 0.0
2017-Nov-10 09:59S 27°24' E 153°09'0 0.0
2017-Nov-10 09:30S 27°24' E 153°09'0 0.0
2017-Nov-10 09:00S 27°24' E 153°09'0 0.0
2017-Nov-10 08:30S 27°24' E 153°09'0 0.0
2017-Nov-10 08:00S 27°24' E 153°09'0 0.0
2017-Nov-10 07:30S 27°24' E 153°09'0 0.0
2017-Nov-10 07:00S 27°24' E 153°09'0 0.0
2017-Nov-10 06:30S 27°24' E 153°09'0 0.0
2017-Nov-10 06:00S 27°24' E 153°09'0 0.0
2017-Nov-10 05:30S 27°24' E 153°09'0 0.0
2017-Nov-10 04:59S 27°24' E 153°09'2 3.9
2017-Nov-10 04:22S 27°22' E 153°11'0 1.2
2017-Nov-10 03:59S 27°21' E 153°11'3 5.4
2017-Nov-10 03:27S 27°24' E 153°09'0 0.0
2017-Nov-10 02:58S 27°24' E 153°09'0 0.0
2017-Nov-10 02:30S 27°24' E 153°09'0 0.0
2017-Nov-10 01:58S 27°24' E 153°09'0 0.0
2017-Nov-10 01:23S 27°24' E 153°09'0 0.0
2017-Nov-10 01:00S 27°24' E 153°09'0 0.0
2017-Nov-10 00:30S 27°24' E 153°09'  
Track history (hours):
 
Tides and Currents Weather Stations Pressure Air Temp Water Temp Dewpoint Dewpoint Depression Visibility Wind Speed Wind Dir Waves Ship Positions

Sl Murrumbidgee

Last reported at 2017-Nov-20 00:30 UTC. Time now 2017-Nov-22 09:23 UTC.
Position S 27°24' E 153°09'.

Length 24 m; draft 5.4 m.

Type: Tug. MMSI: 503384400.

Date/timePositionNaut miles runAvg speedWind from/ knotsBaromVisibWave heightAir tempDewpointWater temp
2017-Nov-20 00:30S 27°24' E 153°09'0 0.0
2017-Nov-20 00:01S 27°24' E 153°09'0 0.0
2017-Nov-19 23:30S 27°24' E 153°09'0 0.0
2017-Nov-19 23:00S 27°24' E 153°09'0 0.0
2017-Nov-19 22:30S 27°24' E 153°09'0 0.0
2017-Nov-19 22:01S 27°24' E 153°09'0 0.0
2017-Nov-19 21:31S 27°24' E 153°09'0 0.0
2017-Nov-19 21:01S 27°24' E 153°09'2 3.1
2017-Nov-19 20:30S 27°23' E 153°10'1 1.0
2017-Nov-19 19:56S 27°22' E 153°10'3 4.0
2017-Nov-19 19:09S 27°25' E 153°09'0 0.6
2017-Nov-19 18:58S 27°25' E 153°09'2 4.9
2017-Nov-19 18:31S 27°23' E 153°10'1 2.7
2017-Nov-19 18:01S 27°24' E 153°09'0 0.0
2017-Nov-19 17:30S 27°24' E 153°09'0 0.0
2017-Nov-19 17:01S 27°24' E 153°09'0 0.0
2017-Nov-19 16:31S 27°24' E 153°09'0 0.0
2017-Nov-19 16:01S 27°24' E 153°09'0 0.0
2017-Nov-19 15:30S 27°24' E 153°09'0 0.0
2017-Nov-19 15:01S 27°24' E 153°09'0 0.0
2017-Nov-19 14:31S 27°24' E 153°09'0 0.0
2017-Nov-19 14:00S 27°24' E 153°09'0 0.0
2017-Nov-19 13:31S 27°24' E 153°09'0 0.0
2017-Nov-19 13:01S 27°24' E 153°09'0 0.0
2017-Nov-19 12:30S 27°24' E 153°09'2 3.8
2017-Nov-19 12:01S 27°22' E 153°10'0 0.1
2017-Nov-19 11:31S 27°22' E 153°10'1 2.4
2017-Nov-19 11:01S 27°21' E 153°11'3 5.8
2017-Nov-19 10:29S 27°24' E 153°09'0 0.2
2017-Nov-19 10:01S 27°24' E 153°09'0 0.0
2017-Nov-19 09:30S 27°24' E 153°09'0 0.0
2017-Nov-19 09:00S 27°24' E 153°09'1 1.5
2017-Nov-19 08:30S 27°23' E 153°09'0 0.4
2017-Nov-19 08:00S 27°23' E 153°09'2 4.1
2017-Nov-19 07:30S 27°22' E 153°11'3 5.6
2017-Nov-19 07:01S 27°24' E 153°09'0 0.0
2017-Nov-19 06:30S 27°24' E 153°09'0 0.0
2017-Nov-19 06:00S 27°24' E 153°09'0 0.0
2017-Nov-19 05:31S 27°24' E 153°09'0 0.0
2017-Nov-19 04:59S 27°24' E 153°09'0 0.0
2017-Nov-19 04:31S 27°24' E 153°09'0 0.0
2017-Nov-19 04:00S 27°24' E 153°09'0 0.0
2017-Nov-19 03:30S 27°24' E 153°09'0 0.0
2017-Nov-19 02:58S 27°24' E 153°09'0 0.0
2017-Nov-19 02:30S 27°24' E 153°09'0 0.0
2017-Nov-19 02:00S 27°24' E 153°09'0 0.0
2017-Nov-19 01:31S 27°24' E 153°09'0 0.0
2017-Nov-19 01:00S 27°24' E 153°09'0 0.0
2017-Nov-19 00:30S 27°24' E 153°09'2 3.7
2017-Nov-18 23:58S 27°22' E 153°10'0 0.6
2017-Nov-18 23:30S 27°22' E 153°10'0 0.2
2017-Nov-18 22:58S 27°22' E 153°10'2 5.0
2017-Nov-18 22:30S 27°24' E 153°09'0 0.0
2017-Nov-18 22:00S 27°24' E 153°09'0 0.0
2017-Nov-18 21:30S 27°24' E 153°09'0 0.0
2017-Nov-18 21:01S 27°24' E 153°09'0 0.0
2017-Nov-18 20:31S 27°24' E 153°09'0 0.0
2017-Nov-18 20:01S 27°24' E 153°09'0 0.0
2017-Nov-18 19:30S 27°24' E 153°09'0 0.0
2017-Nov-18 19:01S 27°24' E 153°09'0 0.0
2017-Nov-18 18:31S 27°24' E 153°09'0 0.0
2017-Nov-18 18:00S 27°24' E 153°09'0 0.0
2017-Nov-18 17:31S 27°24' E 153°09'0 0.0
2017-Nov-18 17:00S 27°24' E 153°09'0 0.0
2017-Nov-18 16:31S 27°24' E 153°09'0 0.0
2017-Nov-18 16:00S 27°24' E 153°09'0 0.0
2017-Nov-18 15:31S 27°24' E 153°09'0 0.0
2017-Nov-18 15:00S 27°24' E 153°09'0 0.0
2017-Nov-18 14:31S 27°24' E 153°09'0 0.0
2017-Nov-18 14:01S 27°24' E 153°09'0 0.0
2017-Nov-18 13:30S 27°24' E 153°09'0 0.0
2017-Nov-18 13:01S 27°24' E 153°09'0 0.0
2017-Nov-18 12:31S 27°24' E 153°09'0 0.0
2017-Nov-18 12:01S 27°24' E 153°09'1 2.4
2017-Nov-18 11:30S 27°23' E 153°10'1 2.4
2017-Nov-18 11:00S 27°24' E 153°09'0 0.0
2017-Nov-18 10:30S 27°24' E 153°09'0 0.0
2017-Nov-18 10:01S 27°24' E 153°09'0 0.0
2017-Nov-18 09:30S 27°24' E 153°09'0 0.0
2017-Nov-18 09:01S 27°24' E 153°09'0 0.0
2017-Nov-18 08:30S 27°24' E 153°09'0 0.0
2017-Nov-18 08:00S 27°24' E 153°09'0 0.0
2017-Nov-18 07:31S 27°24' E 153°09'0 0.0
2017-Nov-18 07:01S 27°24' E 153°09'0 0.0
2017-Nov-18 06:27S 27°24' E 153°09'0 0.0
2017-Nov-18 05:58S 27°24' E 153°09'0 0.0
2017-Nov-18 05:29S 27°24' E 153°09'2 3.3
2017-Nov-18 05:01S 27°23' E 153°10'2 2.9
2017-Nov-18 04:28S 27°24' E 153°09'0 0.0
2017-Nov-18 04:00S 27°24' E 153°09'0 0.0
2017-Nov-18 03:29S 27°24' E 153°09'0 0.0
2017-Nov-18 02:58S 27°24' E 153°09'0 0.0
2017-Nov-18 02:29S 27°24' E 153°09'0 0.0
2017-Nov-18 01:57S 27°24' E 153°09'0 0.0
2017-Nov-18 01:21S 27°24' E 153°09'2 5.7
2017-Nov-18 01:00S 27°22' E 153°10'0 0.4
2017-Nov-18 00:22S 27°22' E 153°10'2 5.9
2017-Nov-17 23:59S 27°24' E 153°09'0 0.4
2017-Nov-17 23:30S 27°24' E 153°09'1 2.3
2017-Nov-17 22:58S 27°23' E 153°10'1 1.0
2017-Nov-17 21:40S 27°24' E 153°09'0 0.0
2017-Nov-17 21:28S 27°24' E 153°09'0 0.0
2017-Nov-17 20:56S 27°24' E 153°09'0 0.0
2017-Nov-17 20:30S 27°24' E 153°09'0 0.0
2017-Nov-17 19:58S 27°24' E 153°09'0 0.0
2017-Nov-17 19:29S 27°24' E 153°09'0 0.0
2017-Nov-17 19:00S 27°24' E 153°09'0 0.0
2017-Nov-17 18:27S 27°24' E 153°09'0 0.0
2017-Nov-17 17:57S 27°24' E 153°09'0 0.0
2017-Nov-17 17:28S 27°24' E 153°09'0 0.0
2017-Nov-17 16:58S 27°24' E 153°09'1 1.0
2017-Nov-17 15:57S 27°23' E 153°10'0 0.1
2017-Nov-17 15:22S 27°23' E 153°10'0 0.3
2017-Nov-17 14:57S 27°23' E 153°09'1 1.5
2017-Nov-17 14:21S 27°24' E 153°09'0 0.0
2017-Nov-17 14:00S 27°24' E 153°09'0 0.0
2017-Nov-17 13:30S 27°24' E 153°09'0 0.0
2017-Nov-17 12:59S 27°24' E 153°09'0 0.0
2017-Nov-17 12:24S 27°24' E 153°09'0 0.0
2017-Nov-17 11:58S 27°24' E 153°09'0 0.0
2017-Nov-17 11:29S 27°24' E 153°09'0 0.0
2017-Nov-17 10:58S 27°24' E 153°09'0 0.0
2017-Nov-17 10:30S 27°24' E 153°09'0 0.0
2017-Nov-17 09:53S 27°24' E 153°09'0 0.0
2017-Nov-17 09:25S 27°24' E 153°09'1 2.9
2017-Nov-17 08:56S 27°23' E 153°10'1 2.7
2017-Nov-17 08:26S 27°24' E 153°09'0 0.0
2017-Nov-17 07:56S 27°24' E 153°09'0 0.0
2017-Nov-17 07:29S 27°24' E 153°09'0 0.0
2017-Nov-17 06:59S 27°24' E 153°09'0 0.0
2017-Nov-17 06:30S 27°24' E 153°09'0 0.0
2017-Nov-17 06:00S 27°24' E 153°09'1 2.6
2017-Nov-17 05:26S 27°24' E 153°11'1 2.9
2017-Nov-17 04:55S 27°24' E 153°09'0 0.0
2017-Nov-17 02:19S 27°24' E 153°09'0 0.0
2017-Nov-17 01:50S 27°24' E 153°09'0 0.0
2017-Nov-17 01:21S 27°24' E 153°09'0 0.0
2017-Nov-17 00:50S 27°24' E 153°09'0 0.0
2017-Nov-17 00:26S 27°24' E 153°09'0 0.0
2017-Nov-16 22:15S 27°24' E 153°09'0 0.0
2017-Nov-16 21:54S 27°24' E 153°09'1 1.9
2017-Nov-16 21:24S 27°23' E 153°09'1 0.9
2017-Nov-16 20:22S 27°24' E 153°09'0 0.0
2017-Nov-16 20:00S 27°24' E 153°09'0 0.0
2017-Nov-16 19:25S 27°24' E 153°09'0 0.0
2017-Nov-16 19:00S 27°24' E 153°09'0 0.0
2017-Nov-16 18:29S 27°24' E 153°09'0 0.0
2017-Nov-16 17:55S 27°24' E 153°09'0 0.0
2017-Nov-16 17:31S 27°24' E 153°09'0 0.0
2017-Nov-16 17:01S 27°24' E 153°09'0 0.0
2017-Nov-16 16:31S 27°24' E 153°09'0 0.0
2017-Nov-16 16:01S 27°24' E 153°09'0 0.0
2017-Nov-16 15:31S 27°24' E 153°09'0 0.0
2017-Nov-16 15:00S 27°24' E 153°09'0 0.0
2017-Nov-16 14:31S 27°24' E 153°09'0 0.0
2017-Nov-16 14:01S 27°24' E 153°09'1 1.5
2017-Nov-16 13:31S 27°23' E 153°09'1 1.4
2017-Nov-16 13:00S 27°23' E 153°10'0 0.4
2017-Nov-16 12:30S 27°23' E 153°10'1 2.5
2017-Nov-16 12:00S 27°24' E 153°09'0 0.0
2017-Nov-16 11:31S 27°24' E 153°09'0 0.0
2017-Nov-16 11:00S 27°24' E 153°09'0 0.0
2017-Nov-16 10:30S 27°24' E 153°09'0 0.0
2017-Nov-16 10:01S 27°24' E 153°09'0 0.0
2017-Nov-16 09:31S 27°24' E 153°09'0 0.0
2017-Nov-16 09:01S 27°24' E 153°09'0 0.0
2017-Nov-16 08:31S 27°24' E 153°09'0 0.0
2017-Nov-16 08:01S 27°24' E 153°09'0 0.0
2017-Nov-16 07:31S 27°24' E 153°09'0 0.0
2017-Nov-16 07:00S 27°24' E 153°09'0 0.0
2017-Nov-16 06:30S 27°24' E 153°09'0 0.0
2017-Nov-16 05:59S 27°24' E 153°09'0 0.0
2017-Nov-16 05:29S 27°24' E 153°09'0 0.0
2017-Nov-16 03:29S 27°24' E 153°09'0 0.0
2017-Nov-16 02:32S 27°24' E 153°09'0 0.1
2017-Nov-16 02:30S 27°24' E 153°09'0 0.0
2017-Nov-16 01:55S 27°24' E 153°09'0 0.0
2017-Nov-16 01:30S 27°24' E 153°09'0 0.0
2017-Nov-16 00:51S 27°24' E 153°09'0 0.0
2017-Nov-16 00:30S 27°24' E 153°09'0 0.0
2017-Nov-15 23:54S 27°24' E 153°09'0 0.0
2017-Nov-15 23:30S 27°24' E 153°09'0 0.0
2017-Nov-15 22:59S 27°24' E 153°09'0 0.0
2017-Nov-15 22:29S 27°24' E 153°09'0 0.0
2017-Nov-15 21:59S 27°24' E 153°09'0 0.0
2017-Nov-15 21:31S 27°24' E 153°09'0 0.0
2017-Nov-15 21:00S 27°24' E 153°09'0 0.0
2017-Nov-15 20:31S 27°24' E 153°09'2 3.4
2017-Nov-15 20:01S 27°23' E 153°10'2 3.0
2017-Nov-15 19:27S 27°24' E 153°09'0 0.2
2017-Nov-15 19:01S 27°24' E 153°09'0 0.0
2017-Nov-15 18:31S 27°24' E 153°09'0 0.0
2017-Nov-15 18:01S 27°24' E 153°09'0 0.0
2017-Nov-15 17:30S 27°24' E 153°09'0 0.0
2017-Nov-15 17:00S 27°24' E 153°09'0 0.0
2017-Nov-15 16:31S 27°24' E 153°09'0 0.0
2017-Nov-15 16:01S 27°24' E 153°09'0 0.0
2017-Nov-15 15:31S 27°24' E 153°09'0 0.0
2017-Nov-15 15:01S 27°24' E 153°09'0 0.0
2017-Nov-15 14:30S 27°24' E 153°09'0 0.0
2017-Nov-15 14:01S 27°24' E 153°09'0 0.0
2017-Nov-15 13:31S 27°24' E 153°09'0 0.0
2017-Nov-15 13:01S 27°24' E 153°09'0 0.0
2017-Nov-15 12:30S 27°24' E 153°09'0 0.0
2017-Nov-15 12:01S 27°24' E 153°09'0 0.0
2017-Nov-15 11:31S 27°24' E 153°09'0 0.0
2017-Nov-15 11:01S 27°24' E 153°09'1 1.9
2017-Nov-15 10:30S 27°23' E 153°10'0 0.1
2017-Nov-15 09:59S 27°23' E 153°10'1 1.3
2017-Nov-15 09:31S 27°23' E 153°10'0 0.2
2017-Nov-15 09:00S 27°23' E 153°10'2 3.3
2017-Nov-15 08:31S 27°24' E 153°09'0 0.0
2017-Nov-15 08:01S 27°24' E 153°09'0 0.0
2017-Nov-15 07:31S 27°24' E 153°09'0 0.0
2017-Nov-15 07:01S 27°24' E 153°09'0 0.0
2017-Nov-15 06:31S 27°24' E 153°09'0 0.0
2017-Nov-15 05:58S 27°24' E 153°09'0 0.0
2017-Nov-15 05:28S 27°24' E 153°09'0 0.0
2017-Nov-15 04:59S 27°24' E 153°09'0 0.0
2017-Nov-15 04:28S 27°24' E 153°09'0 0.0
2017-Nov-15 03:58S 27°24' E 153°09'0 0.0
2017-Nov-15 03:28S 27°24' E 153°09'0 0.0
2017-Nov-15 02:42S 27°24' E 153°09'0 0.0
2017-Nov-15 02:26S 27°24' E 153°09'0 0.0
2017-Nov-15 01:48S 27°24' E 153°09'0 0.0
2017-Nov-15 00:56S 27°24' E 153°09'0 0.0
2017-Nov-15 00:29S 27°24' E 153°09'0 0.0
2017-Nov-15 00:00S 27°24' E 153°09'0 0.0
2017-Nov-14 23:30S 27°24' E 153°09'0 0.0
2017-Nov-14 23:00S 27°24' E 153°09'0 0.0
2017-Nov-14 22:29S 27°24' E 153°09'0 0.0
2017-Nov-14 22:00S 27°24' E 153°09'1 2.3
2017-Nov-14 21:30S 27°23' E 153°10'0 0.6
2017-Nov-14 20:53S 27°23' E 153°10'1 3.9
2017-Nov-14 20:31S 27°24' E 153°09'0 0.0
2017-Nov-14 20:01S 27°24' E 153°09'0 0.0
2017-Nov-14 19:30S 27°24' E 153°09'0 0.0
2017-Nov-14 19:01S 27°24' E 153°09'0 0.0
2017-Nov-14 18:31S 27°24' E 153°09'0 0.0
2017-Nov-14 18:01S 27°24' E 153°09'0 0.0
2017-Nov-14 17:31S 27°24' E 153°09'0 0.0
2017-Nov-14 17:01S 27°24' E 153°09'0 0.0
2017-Nov-14 16:31S 27°24' E 153°09'0 0.0
2017-Nov-14 16:01S 27°24' E 153°09'0 0.0
2017-Nov-14 15:30S 27°24' E 153°09'0 0.0
2017-Nov-14 15:01S 27°24' E 153°09'0 0.0
2017-Nov-14 14:30S 27°24' E 153°09'0 0.0
2017-Nov-14 14:00S 27°24' E 153°09'1 2.4
2017-Nov-14 13:31S 27°23' E 153°10'1 1.0
2017-Nov-14 13:01S 27°23' E 153°10'0 0.5
2017-Nov-14 12:31S 27°23' E 153°10'1 2.9
2017-Nov-14 12:01S 27°24' E 153°09'0 0.0
2017-Nov-14 11:30S 27°24' E 153°09'0 0.0
2017-Nov-14 11:01S 27°24' E 153°09'0 0.0
2017-Nov-14 10:31S 27°24' E 153°09'0 0.0
2017-Nov-14 10:00S 27°24' E 153°09'0 0.0
2017-Nov-14 09:31S 27°24' E 153°09'0 0.0
2017-Nov-14 09:00S 27°24' E 153°09'0 0.0
2017-Nov-14 08:30S 27°24' E 153°09'0 0.0
2017-Nov-14 08:00S 27°24' E 153°09'0 0.0
2017-Nov-14 07:31S 27°24' E 153°09'0 0.0
2017-Nov-14 07:00S 27°24' E 153°09'0 0.0
2017-Nov-14 06:30S 27°24' E 153°09'0 0.0
2017-Nov-14 06:00S 27°24' E 153°09'0 0.0
2017-Nov-14 05:31S 27°24' E 153°09'0 0.0
2017-Nov-14 05:00S 27°24' E 153°09'0 0.0
2017-Nov-14 04:22S 27°24' E 153°09'0 0.0
2017-Nov-14 03:56S 27°24' E 153°09'0 0.0
2017-Nov-14 03:29S 27°24' E 153°09'2 4.0
2017-Nov-14 03:00S 27°22' E 153°10'0 0.2
2017-Nov-14 02:30S 27°22' E 153°10'0 0.8
2017-Nov-14 02:00S 27°22' E 153°10'1 0.6
2017-Nov-14 00:54S 27°23' E 153°10'1 1.7
2017-Nov-14 00:26S 27°22' E 153°11'2 5.5
2017-Nov-13 23:59S 27°24' E 153°09'0 0.0
2017-Nov-13 23:15S 27°24' E 153°09'0 0.0
2017-Nov-13 22:58S 27°24' E 153°09'0 0.0
2017-Nov-13 22:30S 27°24' E 153°09'0 0.0
2017-Nov-13 22:00S 27°24' E 153°09'0 0.0
2017-Nov-13 00:07S 27°24' E 153°09'0 0.0
2017-Nov-12 23:59S 27°24' E 153°09'0 0.0
2017-Nov-12 23:20S 27°24' E 153°09'0 0.0
2017-Nov-12 21:24S 27°24' E 153°09'0 0.1
2017-Nov-12 21:00S 27°24' E 153°09'0 0.0
2017-Nov-12 20:22S 27°24' E 153°09'0 0.0
2017-Nov-12 20:00S 27°24' E 153°09'0 0.0
2017-Nov-12 19:30S 27°24' E 153°09'0 0.0
2017-Nov-12 19:00S 27°24' E 153°09'0 0.0
2017-Nov-12 18:30S 27°24' E 153°09'0 0.0
2017-Nov-12 18:00S 27°24' E 153°09'0 0.0
2017-Nov-12 17:30S 27°24' E 153°09'0 0.0
2017-Nov-12 17:00S 27°24' E 153°09'0 0.0
2017-Nov-12 16:30S 27°24' E 153°09'2 4.9
2017-Nov-12 16:00S 27°22' E 153°11'0 0.5
2017-Nov-12 15:30S 27°22' E 153°10'0 0.0
2017-Nov-12 14:59S 27°22' E 153°10'0 0.0
2017-Nov-12 14:30S 27°22' E 153°10'0 0.0
2017-Nov-12 14:00S 27°22' E 153°10'0 0.0
2017-Nov-12 13:30S 27°22' E 153°10'0 0.0
2017-Nov-12 13:00S 27°22' E 153°10'0 0.2
2017-Nov-12 12:29S 27°22' E 153°10'0 0.9
2017-Nov-12 11:58S 27°22' E 153°11'1 1.7
2017-Nov-12 11:30S 27°21' E 153°11'3 6.6
2017-Nov-12 10:58S 27°24' E 153°09'0 0.1
2017-Nov-12 10:30S 27°24' E 153°09'0 0.0
2017-Nov-12 10:00S 27°24' E 153°09'0 0.0
2017-Nov-12 09:30S 27°24' E 153°09'0 0.0
2017-Nov-12 09:00S 27°24' E 153°09'0 0.0
2017-Nov-12 08:30S 27°24' E 153°09'0 0.0
2017-Nov-12 08:00S 27°24' E 153°09'0 0.0
2017-Nov-12 07:29S 27°24' E 153°09'0 0.0
2017-Nov-12 06:59S 27°24' E 153°09'0 0.0
2017-Nov-12 06:28S 27°24' E 153°09'0 0.0
2017-Nov-12 06:00S 27°24' E 153°09'0 0.0
2017-Nov-12 05:30S 27°24' E 153°09'0 0.0
2017-Nov-12 04:59S 27°24' E 153°09'2 1.6
2017-Nov-12 03:59S 27°23' E 153°10'1 0.3
2017-Nov-12 01:04S 27°22' E 153°11'1 1.2
2017-Nov-12 00:37S 27°21' E 153°11'0 0.8
2017-Nov-12 00:24S 27°21' E 153°11'3 6.4
2017-Nov-11 23:57S 27°24' E 153°09'0 0.0
2017-Nov-11 23:29S 27°24' E 153°09'0 0.0
2017-Nov-11 22:57S 27°24' E 153°09'0 0.0
2017-Nov-11 22:19S 27°24' E 153°09'0 0.0
2017-Nov-11 21:59S 27°24' E 153°09'0 0.0
2017-Nov-11 21:30S 27°24' E 153°09'0 0.0
2017-Nov-11 21:00S 27°24' E 153°09'0 0.0
2017-Nov-11 20:29S 27°24' E 153°09'0 0.0
2017-Nov-11 20:00S 27°24' E 153°09'0 0.0
2017-Nov-11 19:30S 27°24' E 153°09'0 0.0
2017-Nov-11 19:00S 27°24' E 153°09'0 0.0
2017-Nov-11 18:30S 27°24' E 153°09'0 0.0
2017-Nov-11 18:00S 27°24' E 153°09'0 0.0
2017-Nov-11 17:30S 27°24' E 153°09'0 0.0
2017-Nov-11 17:00S 27°24' E 153°09'0 0.0
2017-Nov-11 16:30S 27°24' E 153°09'0 0.0
2017-Nov-11 16:00S 27°24' E 153°09'0 0.0
2017-Nov-11 15:30S 27°24' E 153°09'0 0.0
2017-Nov-11 15:00S 27°24' E 153°09'0 0.0
2017-Nov-11 14:30S 27°24' E 153°09'0 0.0
2017-Nov-11 14:00S 27°24' E 153°09'0 0.0
2017-Nov-11 13:30S 27°24' E 153°09'0 0.0
2017-Nov-11 13:00S 27°24' E 153°09'0 0.0
2017-Nov-11 12:30S 27°24' E 153°09'0 0.0
2017-Nov-11 12:00S 27°24' E 153°09'0 0.0
2017-Nov-11 11:30S 27°24' E 153°09'0 0.0
2017-Nov-11 11:00S 27°24' E 153°09'0 0.0
2017-Nov-11 10:30S 27°24' E 153°09'0 0.0
2017-Nov-11 10:00S 27°24' E 153°09'2 4.7
2017-Nov-11 09:30S 27°22' E 153°10'0 0.6
2017-Nov-11 08:59S 27°22' E 153°11'0 0.6
2017-Nov-11 08:29S 27°22' E 153°10'0 0.2
2017-Nov-11 08:00S 27°22' E 153°10'1 1.3
2017-Nov-11 07:23S 27°23' E 153°10'1 1.6
2017-Nov-11 07:00S 27°23' E 153°09'0 0.5
2017-Nov-11 06:30S 27°23' E 153°10'1 1.4
2017-Nov-11 06:00S 27°22' E 153°10'2 3.8
2017-Nov-11 05:30S 27°24' E 153°09'0 0.0
2017-Nov-11 05:00S 27°24' E 153°09'0 0.0
2017-Nov-11 04:28S 27°24' E 153°09'0 0.0
2017-Nov-11 03:52S 27°24' E 153°09'0 0.0
2017-Nov-11 03:30S 27°24' E 153°09'0 0.0
2017-Nov-11 02:56S 27°24' E 153°09'0 0.0
2017-Nov-11 02:30S 27°24' E 153°09'0 0.0
2017-Nov-10 23:07S 27°24' E 153°09'0 0.0
2017-Nov-10 23:00S 27°24' E 153°09'0 0.0
2017-Nov-10 22:30S 27°24' E 153°09'0 0.0
2017-Nov-10 21:59S 27°24' E 153°09'0 0.0
2017-Nov-10 21:30S 27°24' E 153°09'0 0.0
2017-Nov-10 20:59S 27°24' E 153°09'1 0.5
2017-Nov-10 19:53S 27°25' E 153°09'1 1.5
2017-Nov-10 19:30S 27°24' E 153°09'0 0.0
2017-Nov-10 19:00S 27°24' E 153°09'0 0.0
2017-Nov-10 18:30S 27°24' E 153°09'0 0.0
2017-Nov-10 18:00S 27°24' E 153°09'0 0.0
2017-Nov-10 17:30S 27°24' E 153°09'0 0.0
2017-Nov-10 17:00S 27°24' E 153°09'0 0.0
2017-Nov-10 16:30S 27°24' E 153°09'0 0.0
2017-Nov-10 16:00S 27°24' E 153°09'0 0.0
2017-Nov-10 15:30S 27°24' E 153°09'0 0.0
2017-Nov-10 15:00S 27°24' E 153°09'1 1.2
2017-Nov-10 14:29S 27°25' E 153°09'1 0.6
2017-Nov-10 13:27S 27°25' E 153°09'1 2.8
2017-Nov-10 13:00S 27°24' E 153°09'0 0.0
2017-Nov-10 12:30S 27°24' E 153°09'0 0.0
2017-Nov-10 12:00S 27°24' E 153°09'0 0.0
2017-Nov-10 11:30S 27°24' E 153°09'0 0.0
2017-Nov-10 11:00S 27°24' E 153°09'0 0.0
2017-Nov-10 10:30S 27°24' E 153°09'0 0.0
2017-Nov-10 09:59S 27°24' E 153°09'0 0.0
2017-Nov-10 09:30S 27°24' E 153°09'0 0.0
2017-Nov-10 09:00S 27°24' E 153°09'0 0.0
2017-Nov-10 08:30S 27°24' E 153°09'0 0.0
2017-Nov-10 08:00S 27°24' E 153°09'0 0.0
2017-Nov-10 07:30S 27°24' E 153°09'0 0.0
2017-Nov-10 07:00S 27°24' E 153°09'0 0.0
2017-Nov-10 06:30S 27°24' E 153°09'0 0.0
2017-Nov-10 06:00S 27°24' E 153°09'0 0.0
2017-Nov-10 05:30S 27°24' E 153°09'0 0.0
2017-Nov-10 04:59S 27°24' E 153°09'2 3.9
2017-Nov-10 04:22S 27°22' E 153°11'0 1.2
2017-Nov-10 03:59S 27°21' E 153°11'3 5.4
2017-Nov-10 03:27S 27°24' E 153°09'0 0.0
2017-Nov-10 02:58S 27°24' E 153°09'0 0.0
2017-Nov-10 02:30S 27°24' E 153°09'0 0.0
2017-Nov-10 01:58S 27°24' E 153°09'0 0.0
2017-Nov-10 01:23S 27°24' E 153°09'0 0.0
2017-Nov-10 01:00S 27°24' E 153°09'0 0.0
2017-Nov-10 00:30S 27°24' E 153°09'  

Dump ship's entire track history